createdAt,value
2019-02-24T00:01:04.082Z,9.60
2019-02-24T00:03:32.471Z,8.55
2019-02-24T00:06:00.965Z,9.45
2019-02-24T00:08:29.444Z,8.80
2019-02-24T00:10:58.075Z,8.55
2019-02-24T00:13:26.452Z,7.80
2019-02-24T00:15:54.951Z,9.48
2019-02-24T00:18:23.344Z,9.43
2019-02-24T00:20:51.721Z,8.95
2019-02-24T00:23:20.133Z,10.45
2019-02-24T00:25:48.620Z,11.12
2019-02-24T00:28:17.115Z,9.58
2019-02-24T00:30:47.307Z,10.70
2019-02-24T00:33:15.693Z,9.90
2019-02-24T00:35:44.203Z,10.95
2019-02-24T00:38:12.681Z,10.65
2019-02-24T00:40:41.068Z,10.43
2019-02-24T00:43:10.585Z,11.18
2019-02-24T00:45:39.172Z,9.88
2019-02-24T00:48:07.582Z,9.30
2019-02-24T00:50:36.053Z,10.03
2019-02-24T00:53:06.144Z,8.93
2019-02-24T00:55:34.660Z,8.58
2019-02-24T00:58:03.039Z,8.38
2019-02-24T01:00:31.434Z,10.20
2019-02-24T01:02:59.806Z,9.90
2019-02-24T01:05:28.614Z,8.83
2019-02-24T01:07:56.997Z,8.78
2019-02-24T01:10:27.173Z,9.20
2019-02-24T01:12:55.571Z,7.90
2019-02-24T01:15:24.053Z,8.80
2019-02-24T01:17:52.450Z,8.90
2019-02-24T01:20:20.831Z,8.63
2019-02-24T01:22:49.335Z,8.05
2019-02-24T01:25:17.810Z,9.50
2019-02-24T01:27:46.184Z,7.70
2019-02-24T01:30:14.579Z,6.60
2019-02-24T01:32:43.053Z,7.47
2019-02-24T01:35:11.555Z,7.95
2019-02-24T01:37:40.235Z,7.47
2019-02-24T01:40:08.638Z,7.60
2019-02-24T01:42:37.141Z,8.70
2019-02-24T01:45:05.766Z,7.37
2019-02-24T01:47:34.255Z,8.25
2019-02-24T01:50:03.254Z,8.43
2019-02-24T01:52:31.658Z,8.18
2019-02-24T01:55:00.936Z,8.80
2019-02-24T01:57:29.447Z,8.38
2019-02-24T01:59:57.939Z,7.42
2019-02-24T02:02:26.343Z,7.10
2019-02-24T02:04:54.742Z,7.62
2019-02-24T02:07:24.935Z,6.92
2019-02-24T02:09:53.325Z,6.80
2019-02-24T02:12:21.819Z,7.25
2019-02-24T02:14:50.214Z,7.30
2019-02-24T02:17:19.838Z,7.15
2019-02-24T02:19:48.195Z,7.20
2019-02-24T02:22:16.912Z,7.00
2019-02-24T02:24:45.373Z,7.00
2019-02-24T02:27:13.867Z,6.95
2019-02-24T02:29:42.234Z,7.37
2019-02-24T02:32:10.645Z,6.95
2019-02-24T02:34:39.033Z,7.25
2019-02-24T02:37:07.447Z,7.95
2019-02-24T02:39:36.043Z,6.78
2019-02-24T02:42:04.435Z,6.65
2019-02-24T02:44:32.844Z,7.00
2019-02-24T02:47:01.214Z,6.72
2019-02-24T02:49:29.606Z,8.15
2019-02-24T02:51:59.783Z,6.75
2019-02-24T02:54:28.186Z,7.67
2019-02-24T02:56:56.655Z,6.67
2019-02-24T02:59:25.246Z,7.53
2019-02-24T03:01:53.740Z,6.10
2019-02-24T03:04:23.724Z,7.30
2019-02-24T03:07:14.753Z,7.67
2019-02-24T03:09:43.233Z,6.85
2019-02-24T03:12:11.646Z,6.58
2019-02-24T03:14:40.017Z,6.87
2019-02-24T03:17:08.420Z,8.25
2019-02-24T03:19:36.799Z,9.03
2019-02-24T03:22:05.184Z,6.75
2019-02-24T03:24:33.681Z,7.30
2019-02-24T03:27:02.071Z,7.12
2019-02-24T03:29:30.655Z,6.85
2019-02-24T03:31:59.632Z,9.25
2019-02-24T03:34:28.085Z,5.75
2019-02-24T03:36:57.064Z,7.22
2019-02-24T03:39:25.542Z,8.30
2019-02-24T03:42:02.979Z,7.47
2019-02-24T03:44:32.140Z,6.90
2019-02-24T03:47:00.524Z,6.22
2019-02-24T03:49:48.327Z,7.10
2019-02-24T03:52:16.835Z,7.67
2019-02-24T03:54:45.229Z,7.15
2019-02-24T03:57:15.408Z,7.78
2019-02-24T03:59:44.307Z,7.80
2019-02-24T04:02:12.992Z,6.78
2019-02-24T04:04:41.782Z,5.85
2019-02-24T04:07:10.182Z,6.08
2019-02-24T04:09:38.996Z,7.03
2019-02-24T04:12:07.520Z,6.78
2019-02-24T04:14:35.858Z,6.60
2019-02-24T04:17:04.348Z,6.45
2019-02-24T04:19:32.721Z,7.00
2019-02-24T04:22:01.119Z,7.75
2019-02-24T04:24:29.491Z,7.35
2019-02-24T04:26:57.893Z,6.65
2019-02-24T04:29:26.463Z,6.60
2019-02-24T04:31:54.851Z,6.90
2019-02-24T04:34:24.542Z,6.45
2019-02-24T04:36:52.914Z,6.40
2019-02-24T04:39:21.296Z,6.75
2019-02-24T04:41:52.332Z,6.15
2019-02-24T04:44:20.712Z,7.08
2019-02-24T04:46:50.892Z,6.55
2019-02-24T04:49:19.302Z,6.25
2019-02-24T04:51:49.194Z,6.10
2019-02-24T04:54:17.694Z,5.80
2019-02-24T04:56:46.065Z,6.08
2019-02-24T04:59:14.457Z,6.90
2019-02-24T05:01:42.932Z,5.90
2019-02-24T05:04:11.510Z,5.95
2019-02-24T05:06:40.004Z,6.30
2019-02-24T05:09:08.485Z,6.83
2019-02-24T05:11:36.909Z,6.15
2019-02-24T05:14:05.389Z,6.22
2019-02-24T05:16:33.777Z,6.45
2019-02-24T05:19:02.278Z,6.60
2019-02-24T05:21:30.665Z,6.87
2019-02-24T05:23:59.026Z,6.55
2019-02-24T05:26:29.245Z,7.15
2019-02-24T05:28:58.526Z,6.78
2019-02-24T05:31:27.209Z,8.68
2019-02-24T05:33:55.798Z,5.67
2019-02-24T05:36:24.488Z,7.15
2019-02-24T05:38:53.188Z,6.70
2019-02-24T05:41:23.159Z,6.58
2019-02-24T05:43:51.963Z,7.35
2019-02-24T05:46:20.324Z,7.53
2019-02-24T05:48:49.013Z,7.37
2019-02-24T05:51:17.399Z,6.58
2019-02-24T05:53:45.921Z,8.55
2019-02-24T05:56:14.303Z,6.97
2019-02-24T05:58:42.670Z,7.75
2019-02-24T06:01:11.460Z,7.17
2019-02-24T06:03:40.557Z,9.00
2019-02-24T06:06:09.385Z,6.80
2019-02-24T06:08:37.856Z,6.67
2019-02-24T06:11:06.346Z,6.72
2019-02-24T06:13:36.575Z,7.83
2019-02-24T06:16:05.256Z,8.23
2019-02-24T06:18:33.647Z,9.38
2019-02-24T06:21:02.214Z,8.85
2019-02-24T06:23:30.720Z,8.53
2019-02-24T06:25:59.213Z,8.70
2019-02-24T06:28:27.590Z,8.90
2019-02-24T06:30:57.887Z,7.95
2019-02-24T06:33:26.372Z,9.75
2019-02-24T06:35:54.869Z,9.23
2019-02-24T06:38:23.264Z,10.32
2019-02-24T06:40:51.751Z,8.70
2019-02-24T06:43:20.360Z,8.70
2019-02-24T06:45:48.869Z,9.73
2019-02-24T06:48:17.248Z,9.75
2019-02-24T06:51:11.188Z,10.70
2019-02-24T06:53:39.675Z,10.45
2019-02-24T06:56:08.185Z,7.78
2019-02-24T06:58:36.587Z,8.20
2019-02-24T07:01:06.101Z,7.67
2019-02-24T07:03:34.637Z,8.00
2019-02-24T07:06:03.115Z,6.72
2019-02-24T07:08:31.517Z,6.85
2019-02-24T07:11:00.204Z,6.00
2019-02-24T07:13:28.703Z,6.40
2019-02-24T07:15:58.943Z,7.62
2019-02-24T07:18:27.444Z,6.33
2019-02-24T07:20:56.706Z,7.58
2019-02-24T07:23:25.194Z,6.78
2019-02-24T07:25:53.683Z,7.35
2019-02-24T07:28:22.279Z,9.80
2019-02-24T07:30:50.953Z,7.87
2019-02-24T07:33:19.354Z,8.23
2019-02-24T07:35:47.943Z,7.70
2019-02-24T07:38:16.708Z,7.87
2019-02-24T07:40:45.314Z,8.60
2019-02-24T07:43:14.399Z,8.55
2019-02-24T07:45:42.771Z,7.95
2019-02-24T07:48:11.242Z,7.55
2019-02-24T07:50:39.942Z,7.20
2019-02-24T07:53:08.325Z,8.00
2019-02-24T07:55:36.703Z,8.15
2019-02-24T07:58:05.195Z,8.63
2019-02-24T08:00:33.572Z,7.97
2019-02-24T08:03:02.073Z,6.80
2019-02-24T08:05:30.882Z,6.55
2019-02-24T08:08:00.115Z,7.35
2019-02-24T08:10:28.601Z,7.87
2019-02-24T08:12:56.990Z,6.87
2019-02-24T08:15:26.102Z,6.30
2019-02-24T08:17:54.519Z,6.25
2019-02-24T08:20:23.525Z,5.62
2019-02-24T08:22:52.056Z,6.58
2019-02-24T08:25:20.496Z,5.47
2019-02-24T08:27:48.994Z,6.80
2019-02-24T08:30:17.460Z,5.80
2019-02-24T08:32:45.849Z,6.15
2019-02-24T08:35:14.443Z,6.35
2019-02-24T08:37:42.950Z,5.22
2019-02-24T08:40:13.124Z,4.47
2019-02-24T08:42:41.515Z,6.03
2019-02-24T08:45:11.727Z,5.83
2019-02-24T08:47:40.119Z,6.92
2019-02-24T08:50:08.761Z,5.20
2019-02-24T08:52:37.367Z,5.80
2019-02-24T08:55:06.165Z,5.28
2019-02-24T08:57:34.556Z,5.75
2019-02-24T09:00:03.579Z,5.08
2019-02-24T09:02:33.814Z,6.20
2019-02-24T09:05:02.901Z,6.87
2019-02-24T09:07:31.315Z,6.50
2019-02-24T09:09:59.738Z,5.90
2019-02-24T09:12:28.169Z,6.83
2019-02-24T09:14:56.780Z,5.70
2019-02-24T09:17:25.323Z,7.45
2019-02-24T09:19:53.697Z,7.12
2019-02-24T09:22:22.707Z,5.60
2019-02-24T09:24:51.099Z,6.92
2019-02-24T09:27:19.999Z,5.45
2019-02-24T09:29:48.380Z,6.95
2019-02-24T09:32:19.025Z,6.62
2019-02-24T09:34:47.385Z,6.70
2019-02-24T09:37:15.800Z,6.85
2019-02-24T09:39:44.200Z,5.95
2019-02-24T09:42:16.332Z,6.85
2019-02-24T09:44:44.752Z,6.70
2019-02-24T09:47:13.135Z,6.58
2019-02-24T09:49:41.743Z,7.12
2019-02-24T09:52:10.323Z,5.97
2019-02-24T09:54:40.551Z,6.58
2019-02-24T09:57:08.935Z,7.10
2019-02-24T09:59:39.117Z,7.33
2019-02-24T10:02:07.519Z,6.62
2019-02-24T10:04:35.902Z,6.15
2019-02-24T10:07:04.495Z,6.42
2019-02-24T10:09:33.070Z,7.15
2019-02-24T10:12:13.823Z,6.30
2019-02-24T10:14:44.987Z,7.00
2019-02-24T10:17:13.495Z,6.92
2019-02-24T10:19:43.683Z,7.42
2019-02-24T10:22:12.076Z,6.37
2019-02-24T10:24:40.683Z,6.42
2019-02-24T10:27:09.076Z,5.83
2019-02-24T10:29:39.260Z,5.72
2019-02-24T10:32:07.747Z,7.75
2019-02-24T10:34:36.260Z,6.62
2019-02-24T10:37:04.739Z,6.90
2019-02-24T10:39:33.169Z,6.10
2019-02-24T10:42:04.486Z,6.65
2019-02-24T10:44:33.479Z,6.03
2019-02-24T10:47:02.692Z,6.92
2019-02-24T10:49:31.177Z,7.15
2019-02-24T10:51:59.698Z,6.58
2019-02-24T10:54:28.100Z,6.80
2019-02-24T10:56:56.504Z,7.78
2019-02-24T10:59:25.000Z,6.60
2019-02-24T11:01:53.491Z,6.35
2019-02-24T11:04:21.888Z,7.05
2019-02-24T11:06:50.279Z,8.15
2019-02-24T11:09:18.786Z,7.08
2019-02-24T11:11:47.178Z,8.20
2019-02-24T11:14:15.592Z,7.03
2019-02-24T11:16:44.103Z,7.05
2019-02-24T11:19:12.699Z,7.12
2019-02-24T11:21:41.194Z,7.85
2019-02-24T11:24:09.565Z,6.78
2019-02-24T11:26:38.172Z,6.05
2019-02-24T11:29:06.873Z,6.70
2019-02-24T11:31:38.390Z,7.15
2019-02-24T11:34:06.468Z,7.05
2019-02-24T11:36:35.079Z,6.90
2019-02-24T11:39:04.325Z,7.30
2019-02-24T11:41:32.722Z,6.83
2019-02-24T11:44:01.582Z,6.78
2019-02-24T11:46:30.171Z,6.58
2019-02-24T11:48:58.599Z,7.10
2019-02-24T11:51:26.996Z,8.30
2019-02-24T11:53:55.629Z,8.83
2019-02-24T11:56:24.366Z,7.50
2019-02-24T11:58:54.355Z,8.85
2019-02-24T12:01:22.787Z,6.72
2019-02-24T12:03:51.283Z,10.00
2019-02-24T12:06:19.815Z,6.92
2019-02-24T12:08:48.275Z,7.97
2019-02-24T12:11:16.935Z,7.40
2019-02-24T12:13:45.474Z,7.30
2019-02-24T12:16:13.972Z,8.78
2019-02-24T12:18:42.476Z,7.53
2019-02-24T12:21:11.269Z,8.30
2019-02-24T12:23:39.673Z,8.35
2019-02-24T12:26:08.178Z,7.95
2019-02-24T12:28:36.688Z,6.90
2019-02-24T12:31:06.878Z,8.03
2019-02-24T12:33:36.381Z,8.38
2019-02-24T12:36:06.340Z,8.65
2019-02-24T12:38:35.004Z,6.40
2019-02-24T12:41:03.841Z,7.35
2019-02-24T12:43:32.676Z,8.30
2019-02-24T12:46:01.528Z,7.72
2019-02-24T12:48:30.711Z,8.35
2019-02-24T12:50:59.290Z,6.15
2019-02-24T12:53:28.969Z,7.12
2019-02-24T12:55:57.618Z,7.30
2019-02-24T12:58:29.052Z,7.50
2019-02-24T13:00:58.126Z,7.87
2019-02-24T13:03:29.437Z,7.33
2019-02-24T13:05:58.755Z,7.55
2019-02-24T13:08:27.513Z,8.45
2019-02-24T13:10:56.340Z,9.28
2019-02-24T13:13:26.287Z,7.58
2019-02-24T13:15:54.811Z,6.75
2019-02-24T13:18:23.674Z,8.05
2019-02-24T13:20:52.817Z,8.85
2019-02-24T13:23:22.036Z,7.80
2019-02-24T13:25:50.804Z,7.45
2019-02-24T13:28:19.769Z,6.62
2019-02-24T13:30:48.595Z,7.37
2019-02-24T13:33:17.161Z,7.00
2019-02-24T13:35:45.848Z,6.92
2019-02-24T13:38:14.747Z,6.60
2019-02-24T13:40:45.141Z,7.90
2019-02-24T13:43:14.098Z,7.28
2019-02-24T13:45:43.064Z,7.15
2019-02-24T13:48:12.836Z,6.85
2019-02-24T13:50:41.616Z,7.22
2019-02-24T13:53:10.271Z,6.75
2019-02-24T13:55:39.124Z,5.87
2019-02-24T13:58:07.783Z,6.83
2019-02-24T14:00:38.505Z,7.37
2019-02-24T14:03:07.462Z,6.85
2019-02-24T14:05:36.113Z,6.80
2019-02-24T14:08:05.044Z,6.50
2019-02-24T14:10:33.519Z,7.37
2019-02-24T14:13:02.396Z,8.05
2019-02-24T14:15:33.459Z,8.45
2019-02-24T14:18:01.912Z,6.65
2019-02-24T14:20:30.841Z,6.75
2019-02-24T14:23:02.050Z,7.05
2019-02-24T14:25:30.711Z,6.60
2019-02-24T14:27:59.671Z,7.28
2019-02-24T14:30:29.221Z,6.62
2019-02-24T14:32:57.764Z,7.10
2019-02-24T14:35:27.181Z,7.00
2019-02-24T14:37:55.746Z,6.87
2019-02-24T14:40:24.930Z,6.77
2019-02-24T14:42:53.461Z,7.07
2019-02-24T14:45:22.097Z,7.50
2019-02-24T14:47:52.304Z,7.30
2019-02-24T14:50:20.719Z,6.23
2019-02-24T14:52:49.348Z,6.60
2019-02-24T14:55:17.793Z,6.03
2019-02-24T14:57:47.871Z,6.40
2019-02-24T15:00:16.599Z,6.43
2019-02-24T15:02:45.510Z,7.70
2019-02-24T15:05:16.343Z,9.33
2019-02-24T15:07:45.124Z,7.90
2019-02-24T15:10:14.936Z,7.33
2019-02-24T15:12:43.342Z,7.50
2019-02-24T15:15:15.092Z,7.07
2019-02-24T15:17:43.917Z,8.00
2019-02-24T15:20:17.655Z,7.50
2019-02-24T15:22:47.889Z,7.70
2019-02-24T15:25:16.757Z,8.00
2019-02-24T15:27:47.112Z,6.90
2019-02-24T15:30:21.766Z,7.25
2019-02-24T15:32:51.941Z,7.30
2019-02-24T15:35:20.712Z,8.55
2019-02-24T15:37:49.115Z,8.07
2019-02-24T15:40:17.690Z,7.87
2019-02-24T15:42:46.187Z,8.00
2019-02-24T15:45:16.512Z,9.10
2019-02-24T15:47:45.504Z,8.13
2019-02-24T15:50:14.047Z,8.00
2019-02-24T15:52:44.295Z,8.13
2019-02-24T15:55:14.060Z,8.95
2019-02-24T15:57:42.593Z,9.00
2019-02-24T16:00:14.040Z,8.37
2019-02-24T16:02:42.464Z,8.60
2019-02-24T16:05:10.930Z,9.00
2019-02-24T16:07:39.355Z,8.40
2019-02-24T16:10:11.340Z,7.97
2019-02-24T16:12:39.898Z,8.70
2019-02-24T16:15:11.278Z,8.08
2019-02-24T16:17:39.835Z,7.67
2019-02-24T16:20:14.393Z,8.40
2019-02-24T16:22:44.616Z,7.72
2019-02-24T16:25:13.031Z,7.83
2019-02-24T16:27:41.990Z,8.68
2019-02-24T16:30:11.782Z,8.85
2019-02-24T16:32:40.609Z,8.45
2019-02-24T16:35:11.189Z,8.40
2019-02-24T16:37:39.964Z,9.20
2019-02-24T16:40:14.715Z,8.50
2019-02-24T16:42:43.485Z,7.20
2019-02-24T16:45:12.471Z,7.72
2019-02-24T16:47:41.494Z,6.60
2019-02-24T16:50:12.331Z,7.75
2019-02-24T16:52:40.965Z,7.63
2019-02-24T16:55:10.632Z,8.10
2019-02-24T16:57:39.677Z,10.48
2019-02-24T17:00:12.029Z,9.75
2019-02-24T17:02:40.806Z,8.18
2019-02-24T17:05:09.632Z,9.08
2019-02-24T17:07:39.224Z,8.53
2019-02-24T17:10:10.475Z,8.70
2019-02-24T17:12:39.076Z,8.60
2019-02-24T17:15:08.625Z,9.90
2019-02-24T17:17:37.505Z,11.55
2019-02-24T17:20:08.921Z,9.95
2019-02-24T17:22:37.442Z,8.85
2019-02-24T17:25:07.855Z,8.75
2019-02-24T17:27:36.304Z,10.53
2019-02-24T17:30:05.871Z,8.80
2019-02-24T17:32:36.249Z,8.60
2019-02-24T17:35:05.085Z,9.45
2019-02-24T17:37:35.394Z,9.50
2019-02-24T17:40:05.644Z,10.25
2019-02-24T17:42:34.284Z,8.33
2019-02-24T17:45:03.280Z,9.08
2019-02-24T17:47:32.022Z,9.85
2019-02-24T17:50:02.223Z,11.20
2019-02-24T17:52:30.931Z,10.90
2019-02-24T17:54:59.618Z,11.48
2019-02-24T17:57:28.323Z,10.50
2019-02-24T17:59:56.969Z,10.40
2019-02-24T18:02:25.830Z,9.90
2019-02-24T18:04:54.546Z,10.38
2019-02-24T18:07:23.297Z,11.18
2019-02-24T18:09:51.960Z,13.13
2019-02-24T18:12:21.421Z,11.05
2019-02-24T18:14:51.676Z,11.22
2019-02-24T18:17:21.964Z,11.48
2019-02-24T18:19:52.299Z,11.90
2019-02-24T18:22:20.825Z,11.30
2019-02-24T18:24:49.832Z,10.45
2019-02-24T18:27:18.631Z,11.33
2019-02-24T18:29:48.885Z,13.83
2019-02-24T18:32:18.934Z,10.97
2019-02-24T18:34:48.323Z,12.03
2019-02-24T18:37:17.002Z,12.03
2019-02-24T18:39:47.296Z,11.77
2019-02-24T18:42:27.616Z,12.87
2019-02-24T18:44:58.716Z,11.80
2019-02-24T18:47:27.373Z,14.00
2019-02-24T18:49:55.915Z,12.85
2019-02-24T18:52:24.849Z,13.10
2019-02-24T18:54:55.192Z,10.95
2019-02-24T18:57:23.650Z,11.45
2019-02-24T18:59:54.156Z,12.18
2019-02-24T19:02:22.778Z,10.43
2019-02-24T19:04:51.316Z,10.78
2019-02-24T19:07:20.447Z,10.70
2019-02-24T19:09:49.374Z,10.82
2019-02-24T19:12:21.662Z,10.40
2019-02-24T19:14:50.522Z,10.30
2019-02-24T19:17:18.938Z,10.00
2019-02-24T19:19:49.625Z,12.73
2019-02-24T19:22:18.294Z,17.40
2019-02-24T19:24:47.046Z,18.25
2019-02-24T19:27:15.484Z,17.65
2019-02-24T19:29:45.285Z,18.50
2019-02-24T19:32:15.548Z,17.05
2019-02-24T19:34:44.239Z,16.00
2019-02-24T19:37:13.037Z,18.25
2019-02-24T19:39:44.100Z,17.45
2019-02-24T19:42:13.843Z,16.50
2019-02-24T19:44:43.573Z,15.13
2019-02-24T19:47:12.409Z,17.00
2019-02-24T19:49:43.226Z,16.12
2019-02-24T19:52:12.176Z,14.68
2019-02-24T19:54:42.611Z,16.57
2019-02-24T19:57:11.793Z,14.23
2019-02-24T19:59:40.301Z,16.37
2019-02-24T20:02:08.911Z,15.43
2019-02-24T20:04:37.565Z,17.45
2019-02-24T20:07:06.440Z,15.20
2019-02-24T20:09:35.390Z,15.75
2019-02-24T20:12:04.033Z,14.98
2019-02-24T20:14:32.938Z,16.30
2019-02-24T20:17:01.849Z,17.25
2019-02-24T20:19:30.484Z,18.27
2019-02-24T20:22:01.593Z,18.07
2019-02-24T20:24:33.069Z,20.20
2019-02-24T20:27:00.792Z,17.32
2019-02-24T20:29:29.696Z,18.23
2019-02-24T20:32:06.710Z,19.00
2019-02-24T20:34:37.935Z,17.00
2019-02-24T20:37:06.776Z,15.88
2019-02-24T20:39:35.942Z,19.20
2019-02-24T20:42:05.086Z,18.77
2019-02-24T20:44:35.500Z,19.37
2019-02-24T20:47:04.219Z,23.80
2019-02-24T20:49:32.728Z,21.95
2019-02-24T20:52:01.363Z,23.05
2019-02-24T20:54:30.454Z,20.43
2019-02-24T20:56:58.896Z,21.52
2019-02-24T20:59:27.922Z,19.27
2019-02-24T21:01:56.340Z,17.95
2019-02-24T21:04:25.325Z,16.95
2019-02-24T21:06:53.818Z,15.60
2019-02-24T21:09:23.815Z,13.70
2019-02-24T21:11:52.347Z,12.73
2019-02-24T21:14:20.795Z,13.25
2019-02-24T21:16:49.179Z,13.18
2019-02-24T21:19:17.565Z,13.68
2019-02-24T21:21:47.762Z,13.65
2019-02-24T21:24:17.098Z,14.00
2019-02-24T21:26:45.706Z,13.90
2019-02-24T21:29:14.093Z,13.40
2019-02-24T21:31:42.539Z,13.00
2019-02-24T21:34:11.147Z,15.25
2019-02-24T21:36:39.954Z,14.00
2019-02-24T21:39:08.638Z,14.23
2019-02-24T21:41:37.133Z,13.65
2019-02-24T21:44:05.518Z,14.23
2019-02-24T21:46:34.630Z,14.93
2019-02-24T21:49:03.208Z,12.75
2019-02-24T21:51:31.691Z,12.85
2019-02-24T21:54:00.104Z,13.35
2019-02-24T21:56:30.303Z,14.25
2019-02-24T21:59:00.507Z,12.85
2019-02-24T22:01:30.245Z,14.30
2019-02-24T22:03:59.179Z,13.53
2019-02-24T22:06:27.558Z,13.18
2019-02-24T22:08:56.150Z,12.98
2019-02-24T22:11:24.630Z,13.55
2019-02-24T22:13:53.063Z,14.87
2019-02-24T22:16:21.548Z,13.15
2019-02-24T22:18:50.247Z,14.33
2019-02-24T22:21:18.834Z,12.20
2019-02-24T22:23:47.524Z,13.60
2019-02-24T22:26:15.943Z,13.62
2019-02-24T22:28:44.438Z,13.85
2019-02-24T22:31:12.817Z,13.93
2019-02-24T22:33:43.030Z,13.40
2019-02-24T22:36:11.524Z,13.67
2019-02-24T22:38:39.913Z,14.25
2019-02-24T22:41:09.111Z,13.35
2019-02-24T22:43:37.635Z,13.20
2019-02-24T22:46:06.108Z,14.30
2019-02-24T22:48:34.742Z,13.30
2019-02-24T22:51:03.132Z,14.00
2019-02-24T22:53:31.613Z,14.97
2019-02-24T22:56:00.212Z,13.53
2019-02-24T22:58:28.608Z,12.70
2019-02-24T23:01:10.045Z,14.20
2019-02-24T23:03:41.913Z,14.63
2019-02-24T23:06:10.326Z,13.85
2019-02-24T23:08:38.814Z,12.90
2019-02-24T23:11:07.318Z,13.05
2019-02-24T23:13:35.691Z,13.60
2019-02-24T23:16:04.191Z,14.10
2019-02-24T23:18:33.208Z,13.28
2019-02-24T23:21:01.692Z,12.18
2019-02-24T23:23:30.106Z,12.82
2019-02-24T23:25:58.583Z,14.83
2019-02-24T23:28:27.099Z,14.47
2019-02-24T23:30:55.608Z,14.60
2019-02-24T23:33:24.313Z,13.60
2019-02-24T23:35:52.713Z,13.95
2019-02-24T23:38:21.191Z,13.60
2019-02-24T23:40:49.691Z,16.02
2019-02-24T23:43:18.072Z,12.65
2019-02-24T23:45:48.298Z,15.23
2019-02-24T23:48:16.777Z,12.98
2019-02-24T23:50:45.278Z,13.45
2019-02-24T23:53:13.710Z,13.40
2019-02-24T23:55:43.599Z,13.53
2019-02-24T23:58:12.293Z,14.53
